Overview Statistics Trail Chart Weather Telemetry Raw packets
 

This is the latest recevied weather packets stored in our database for station/object DL2AKT-20. If no packets are shown the sender has not sent any weather packets the latest 10 day(s).

<< 23 24 25 26 27 28 29 >>
Time Temp. Humidity Pressure Rain* Wind** Luminosity Snow
1777654170 22.78° C 26% 1028 hPa - - - -
1777653269 23.33° C 26% 1028.1 hPa - - - -
1777652369 23.89° C 25% 1028.1 hPa - - - -
1777651469 23.33° C 25% 1028.3 hPa - - - -
1777650569 23.33° C 24% 1028.3 hPa - - - -
1777649669 23.33° C 25% 1028.5 hPa - - - -
1777648769 23.33° C 24% 1028.6 hPa - - - -
1777647869 23.33° C 25% 1028.8 hPa - - - -
1777646969 22.78° C 24% 1029 hPa - - - -
1777646069 22.78° C 24% 1029.1 hPa - - - -
1777645169 22.78° C 24% 1029.2 hPa - - - -
1777644269 23.33° C 25% 1029.3 hPa - - - -
1777643369 23.33° C 23% 1029.4 hPa - - - -
1777642468 23.33° C 23% 1029.6 hPa - - - -
1777641568 23.33° C 24% 1029.7 hPa - - - -
1777640667 23.33° C 23% 1029.8 hPa - - - -
1777639771 22.78° C 24% 1030 hPa - - - -
1777638871 22.78° C 24% 1030.2 hPa - - - -
1777637971 22.22° C 26% 1030.4 hPa - - - -
1777637071 23.33° C 24% 1030.5 hPa - - - -
1777636171 23.33° C 25% 1030.7 hPa - - - -
1777635270 22.78° C 26% 1030.8 hPa - - - -
1777634371 22.78° C 27% 1030.9 hPa - - - -
1777633470 22.22° C 26% 1031.2 hPa - - - -
1777632570 21.67° C 27% 1031.3 hPa - - - -

* Rain since midnight (hover to see other rain measurements)
** Current wind speed in m/s (hover to see current wind gust speed)